createdAt,value
2023-03-07T00:01:27.862Z,99141.81
2023-03-07T00:03:55.465Z,99131.94
2023-03-07T00:06:22.948Z,99137.63
2023-03-07T00:08:52.114Z,99149.81
2023-03-07T00:11:20.228Z,99137.09
2023-03-07T00:13:47.381Z,99135.97
2023-03-07T00:16:17.537Z,99137.63
2023-03-07T00:18:44.973Z,99124.59
2023-03-07T00:21:15.151Z,99126.25
2023-03-07T00:23:44.714Z,99130.72
2023-03-07T00:26:23.765Z,99123.25
2023-03-07T00:28:53.196Z,99120.81
2023-03-07T00:31:22.029Z,99131.09
2023-03-07T00:33:49.440Z,99129.09
2023-03-07T00:36:20.608Z,99127.31
2023-03-07T00:38:47.939Z,99122.19
2023-03-07T00:41:18.644Z,99129.59
2023-03-07T00:43:47.189Z,99129.59
2023-03-07T00:46:16.129Z,99128.53
2023-03-07T00:48:43.917Z,99125.25
2023-03-07T00:51:13.764Z,99119.19
2023-03-07T00:53:41.578Z,99119.84
2023-03-07T00:56:14.702Z,99112.16
2023-03-07T00:58:41.773Z,99111.59
2023-03-07T01:01:09.865Z,99122.69
2023-03-07T01:03:37.115Z,99120.53
2023-03-07T01:06:07.296Z,99126.72
2023-03-07T01:08:34.834Z,99125.06
2023-03-07T01:11:05.063Z,99133.19
2023-03-07T01:13:33.909Z,99131.31
2023-03-07T01:16:22.231Z,99142.13
2023-03-07T01:18:52.576Z,99144.69
2023-03-07T01:21:22.713Z,99149.53
2023-03-07T01:23:50.378Z,99137.53
2023-03-07T01:26:27.932Z,99150.91
2023-03-07T01:28:58.687Z,99149.06
2023-03-07T01:31:26.465Z,99162.13
2023-03-07T01:33:54.456Z,99149.63
2023-03-07T01:36:31.195Z,99155.16
2023-03-07T01:39:17.034Z,99158.13
2023-03-07T01:41:45.693Z,99160.97
2023-03-07T01:44:27.899Z,99159.81
2023-03-07T01:47:00.034Z,99168.03
2023-03-07T01:49:39.949Z,99163.03
2023-03-07T01:52:15.332Z,99167.34
2023-03-07T01:54:49.109Z,99164.63
2023-03-07T01:57:23.661Z,99174.56
2023-03-07T01:59:55.805Z,99164.34
2023-03-07T02:02:24.519Z,99157.91
2023-03-07T02:05:10.208Z,99165.81
2023-03-07T02:07:49.339Z,99154.34
2023-03-07T02:10:20.346Z,99138.28
2023-03-07T02:12:47.717Z,99145.56
2023-03-07T02:15:15.233Z,99151.13
2023-03-07T02:17:43.610Z,99139.91
2023-03-07T02:20:54.106Z,99136.22
2023-03-07T02:23:35.897Z,99137.72
2023-03-07T02:26:41.028Z,99134.78
2023-03-07T02:29:08.046Z,99132.97
2023-03-07T02:31:34.973Z,99130.19
2023-03-07T02:34:01.916Z,99126.94
2023-03-07T02:36:33.853Z,99121.81
2023-03-07T02:39:02.945Z,99118.16
2023-03-07T02:41:33.676Z,99114.59
2023-03-07T02:44:00.721Z,99107.34
2023-03-07T02:46:27.668Z,99101.75
2023-03-07T02:48:54.663Z,99095.56
2023-03-07T02:51:21.632Z,99102.19
2023-03-07T02:53:48.728Z,99102.00
2023-03-07T02:56:15.694Z,99092.06
2023-03-07T02:58:42.693Z,99083.66
2023-03-07T03:01:10.995Z,99077.75
2023-03-07T03:03:37.953Z,99077.75
2023-03-07T03:06:05.142Z,99073.44
2023-03-07T03:08:32.150Z,99069.13
2023-03-07T03:10:59.243Z,99066.44
2023-03-07T03:13:26.547Z,99072.19
2023-03-07T03:15:58.053Z,99071.06
2023-03-07T03:18:28.454Z,99060.97
2023-03-07T03:20:55.414Z,99054.09
2023-03-07T03:23:22.479Z,99055.94
2023-03-07T03:26:02.002Z,99057.22
2023-03-07T03:28:29.252Z,99048.22
2023-03-07T03:31:01.643Z,99049.25
2023-03-07T03:33:29.324Z,99046.94
2023-03-07T03:35:58.584Z,99050.88
2023-03-07T03:38:26.986Z,99042.41
2023-03-07T03:40:53.874Z,99039.50
2023-03-07T03:43:20.832Z,99036.88
2023-03-07T03:45:56.065Z,99030.41
2023-03-07T03:48:23.475Z,99031.16
2023-03-07T03:50:50.513Z,99036.56
2023-03-07T03:53:17.460Z,99025.78
2023-03-07T03:55:44.309Z,99023.75
2023-03-07T03:58:11.250Z,99023.09
2023-03-07T04:00:38.741Z,99021.75
2023-03-07T04:03:05.647Z,99027.72
2023-03-07T04:05:35.144Z,99025.56
2023-03-07T04:08:02.065Z,99019.06
2023-03-07T04:10:28.948Z,99026.34
2023-03-07T04:12:55.925Z,99023.38
2023-03-07T04:15:22.833Z,99010.75
2023-03-07T04:17:49.702Z,99007.72
2023-03-07T04:20:17.843Z,98997.19
2023-03-07T04:22:45.106Z,98993.25
2023-03-07T04:25:12.248Z,99000.84
2023-03-07T04:27:39.281Z,98997.19
2023-03-07T04:30:06.953Z,98993.78
2023-03-07T04:32:34.298Z,99000.47
2023-03-07T04:35:01.160Z,98995.03
2023-03-07T04:37:28.546Z,98992.06
2023-03-07T04:39:55.432Z,98990.03
2023-03-07T04:42:22.423Z,98974.47
2023-03-07T04:44:49.314Z,98977.72
2023-03-07T04:47:16.250Z,98964.31
2023-03-07T04:49:43.205Z,98960.81
2023-03-07T04:52:10.101Z,98965.53
2023-03-07T04:54:36.944Z,98959.97
2023-03-07T04:57:04.117Z,98958.50
2023-03-07T04:59:30.986Z,98957.53
2023-03-07T05:01:57.901Z,98943.34
2023-03-07T05:04:24.790Z,98942.81
2023-03-07T05:06:52.385Z,98939.03
2023-03-07T05:09:19.360Z,98930.88
2023-03-07T05:11:46.296Z,98936.97
2023-03-07T05:14:13.191Z,98931.31
2023-03-07T05:16:40.157Z,98927.09
2023-03-07T05:19:07.108Z,98925.75
2023-03-07T05:21:34.191Z,98924.81
2023-03-07T05:24:01.080Z,98915.47
2023-03-07T05:26:27.934Z,98908.94
2023-03-07T05:28:54.915Z,98909.75
2023-03-07T05:31:21.879Z,98905.16
2023-03-07T05:33:48.905Z,98917.59
2023-03-07T05:36:16.580Z,98906.38
2023-03-07T05:38:44.074Z,98904.91
2023-03-07T05:41:11.098Z,98896.78
2023-03-07T05:43:38.026Z,98898.38
2023-03-07T05:46:05.287Z,98885.53
2023-03-07T05:48:32.361Z,98873.88
2023-03-07T05:51:01.243Z,98869.44
2023-03-07T05:53:28.213Z,98862.09
2023-03-07T05:55:55.177Z,98859.16
2023-03-07T05:58:22.179Z,98856.81
2023-03-07T06:00:49.514Z,98846.66
2023-03-07T06:03:16.562Z,98848.97
2023-03-07T06:05:43.674Z,98845.56
2023-03-07T06:08:10.701Z,98843.53
2023-03-07T06:10:40.059Z,98836.63
2023-03-07T06:13:07.256Z,98843.72
2023-03-07T06:15:34.241Z,98835.56
2023-03-07T06:18:01.157Z,98843.81
2023-03-07T06:20:28.087Z,98844.47
2023-03-07T06:22:54.981Z,98834.59
2023-03-07T06:25:21.995Z,98844.09
2023-03-07T06:27:49.082Z,98847.16
2023-03-07T06:30:16.862Z,98832.03
2023-03-07T06:32:43.789Z,98840.41
2023-03-07T06:35:10.777Z,98846.22
2023-03-07T06:37:37.796Z,98852.84
2023-03-07T06:40:06.395Z,98849.09
2023-03-07T06:42:33.409Z,98850.28
2023-03-07T06:45:00.308Z,98839.00
2023-03-07T06:47:27.321Z,98844.38
2023-03-07T06:49:55.736Z,98839.00
2023-03-07T06:52:23.385Z,98837.63
2023-03-07T06:54:50.501Z,98847.28
2023-03-07T06:57:17.357Z,98848.19
2023-03-07T06:59:44.281Z,98849.56
2023-03-07T07:02:14.990Z,98846.06
2023-03-07T07:04:42.115Z,98857.53
2023-03-07T07:07:09.054Z,98854.69
2023-03-07T07:09:36.001Z,98853.59
2023-03-07T07:12:05.229Z,98861.75
2023-03-07T07:14:33.420Z,98859.66
2023-03-07T07:17:01.194Z,98851.53
2023-03-07T07:19:28.255Z,98855.19
2023-03-07T07:21:55.145Z,98847.59
2023-03-07T07:24:22.091Z,98849.34
2023-03-07T07:26:49.098Z,98855.66
2023-03-07T07:29:16.184Z,98847.06
2023-03-07T07:31:43.203Z,98852.94
2023-03-07T07:34:10.257Z,98846.03
2023-03-07T07:36:37.127Z,98843.91
2023-03-07T07:39:05.656Z,98848.97
2023-03-07T07:41:34.122Z,98849.94
2023-03-07T07:44:01.217Z,98850.16
2023-03-07T07:46:28.790Z,98836.72
2023-03-07T07:48:56.130Z,98837.28
2023-03-07T07:51:23.193Z,98840.50
2023-03-07T07:53:50.114Z,98837.16
2023-03-07T07:56:17.079Z,98834.63
2023-03-07T07:58:44.083Z,98823.66
2023-03-07T08:01:16.066Z,98832.94
2023-03-07T08:03:43.828Z,98825.28
2023-03-07T08:06:11.779Z,98833.56
2023-03-07T08:08:39.280Z,98831.34
2023-03-07T08:11:06.548Z,98830.81
2023-03-07T08:13:33.470Z,98822.50
2023-03-07T08:16:00.414Z,98828.03
2023-03-07T08:18:27.414Z,98819.31
2023-03-07T08:20:54.310Z,98819.91
2023-03-07T08:23:21.214Z,98809.59
2023-03-07T08:25:50.104Z,98801.22
2023-03-07T08:28:17.074Z,98815.50
2023-03-07T08:30:43.971Z,98806.97
2023-03-07T08:33:10.895Z,98811.94
2023-03-07T08:35:40.099Z,98806.47
2023-03-07T08:38:06.987Z,98798.31
2023-03-07T08:40:33.933Z,98797.34
2023-03-07T08:43:01.238Z,98792.84
2023-03-07T08:45:28.391Z,98788.53
2023-03-07T08:47:56.530Z,98792.13
2023-03-07T08:50:29.971Z,98787.09
2023-03-07T08:52:57.683Z,98792.28
2023-03-07T08:55:24.563Z,98780.88
2023-03-07T08:57:51.565Z,98781.91
2023-03-07T09:00:19.515Z,98784.75
2023-03-07T09:02:46.860Z,98779.75
2023-03-07T09:05:13.737Z,98779.84
2023-03-07T09:07:40.681Z,98771.13
2023-03-07T09:10:08.421Z,98760.88
2023-03-07T09:12:36.156Z,98753.41
2023-03-07T09:15:03.374Z,98753.78
2023-03-07T09:17:30.500Z,98756.22
2023-03-07T09:19:57.392Z,98750.72
2023-03-07T09:22:24.347Z,98737.28
2023-03-07T09:24:51.351Z,98738.84
2023-03-07T09:27:18.227Z,98748.34
2023-03-07T09:29:47.163Z,98732.28
2023-03-07T09:32:14.237Z,98735.41
2023-03-07T09:34:41.232Z,98751.28
2023-03-07T09:37:08.253Z,98741.25
2023-03-07T09:39:35.247Z,98731.63
2023-03-07T09:42:23.316Z,98728.25
2023-03-07T09:45:11.953Z,98729.47
2023-03-07T09:47:50.754Z,98715.72
2023-03-07T09:50:45.444Z,98713.44
2023-03-07T09:53:37.813Z,98722.81
2023-03-07T09:56:43.834Z,98714.63
2023-03-07T09:59:31.682Z,98718.97
2023-03-07T10:02:12.895Z,98705.09
2023-03-07T10:04:58.422Z,98699.59
2023-03-07T10:07:27.689Z,98689.91
2023-03-07T10:10:00.714Z,98686.84
2023-03-07T10:13:04.581Z,98675.56
2023-03-07T10:16:00.670Z,98673.63
2023-03-07T10:18:59.232Z,98671.69
2023-03-07T10:21:56.697Z,98660.69
2023-03-07T10:24:57.690Z,98660.69
2023-03-07T10:27:29.215Z,98649.50
2023-03-07T10:29:59.717Z,98641.41
2023-03-07T10:32:34.550Z,98635.06
2023-03-07T10:35:16.746Z,98629.28
2023-03-07T10:38:05.231Z,98627.28
2023-03-07T10:40:52.557Z,98625.88
2023-03-07T10:43:33.801Z,98630.50
2023-03-07T10:46:26.274Z,98613.31
2023-03-07T10:48:59.272Z,98607.00
2023-03-07T10:51:53.857Z,98600.56
2023-03-07T10:54:30.206Z,98592.16
2023-03-07T10:57:07.670Z,98591.38
2023-03-07T10:59:36.348Z,98600.84
2023-03-07T11:02:18.509Z,98600.69
2023-03-07T11:04:47.193Z,98601.09
2023-03-07T11:07:35.933Z,98588.25
2023-03-07T11:10:35.974Z,98585.38
2023-03-07T11:13:20.687Z,98580.00
2023-03-07T11:15:48.959Z,98582.88
2023-03-07T11:18:45.878Z,98575.63
2023-03-07T11:21:29.571Z,98578.94
2023-03-07T11:24:23.853Z,98577.16
2023-03-07T11:26:55.678Z,98574.44
2023-03-07T11:29:22.862Z,98570.31
2023-03-07T11:32:06.015Z,98578.50
2023-03-07T11:35:15.246Z,98569.16
2023-03-07T11:38:14.465Z,98566.00
2023-03-07T11:41:11.872Z,98566.09
2023-03-07T11:43:53.612Z,98545.97
2023-03-07T11:46:43.932Z,98539.59
2023-03-07T11:49:26.590Z,98534.69
2023-03-07T11:52:56.580Z,98536.19
2023-03-07T11:55:53.900Z,98532.94
2023-03-07T11:58:59.817Z,98512.63
2023-03-07T12:01:47.440Z,98510.94
2023-03-07T12:04:45.226Z,98505.94
2023-03-07T12:07:39.861Z,98504.09
2023-03-07T12:10:36.198Z,98515.97
2023-03-07T12:13:41.169Z,98508.59
2023-03-07T12:17:12.381Z,98504.97
2023-03-07T12:20:02.518Z,98510.03
2023-03-07T12:22:47.239Z,98508.72
2023-03-07T12:25:25.440Z,98493.25
2023-03-07T12:28:04.633Z,98494.75
2023-03-07T12:30:41.097Z,98475.75
2023-03-07T12:33:21.729Z,98468.56
2023-03-07T12:35:56.469Z,98463.97
2023-03-07T12:38:48.735Z,98473.94
2023-03-07T12:42:03.111Z,98456.31
2023-03-07T12:44:54.991Z,98454.06
2023-03-07T12:47:55.382Z,98463.56
2023-03-07T12:50:30.075Z,98454.09
2023-03-07T12:53:14.124Z,98425.28
2023-03-07T12:55:46.906Z,98440.19
2023-03-07T12:58:27.201Z,98429.56
2023-03-07T13:01:03.248Z,98434.59
2023-03-07T13:03:58.063Z,98439.13
2023-03-07T13:06:26.224Z,98434.97
2023-03-07T13:09:00.812Z,98442.47
2023-03-07T13:11:31.225Z,98418.94
2023-03-07T13:14:00.180Z,98427.69
2023-03-07T13:16:45.933Z,98399.47
2023-03-07T13:19:31.171Z,98411.03
2023-03-07T13:21:58.686Z,98416.06
2023-03-07T13:24:37.655Z,98411.69
2023-03-07T13:27:16.045Z,98421.78
2023-03-07T13:30:19.805Z,98423.91
2023-03-07T13:32:52.602Z,98414.91
2023-03-07T13:35:28.734Z,98417.41
2023-03-07T13:38:41.152Z,98413.25
2023-03-07T13:41:13.106Z,98413.50
2023-03-07T13:43:46.041Z,98427.59
2023-03-07T13:46:28.188Z,98423.69
2023-03-07T13:48:55.038Z,98431.28
2023-03-07T13:51:22.428Z,98428.38
2023-03-07T13:54:01.572Z,98425.72
2023-03-07T13:56:35.561Z,98439.56
2023-03-07T13:59:22.783Z,98433.22
2023-03-07T14:01:57.961Z,98427.47
2023-03-07T14:04:55.427Z,98462.97
2023-03-07T14:07:28.108Z,98461.44
2023-03-07T14:10:22.811Z,98461.97
2023-03-07T14:13:29.555Z,98470.00
2023-03-07T14:16:14.399Z,98477.72
2023-03-07T14:19:01.608Z,98490.66
2023-03-07T14:21:52.252Z,98501.06
2023-03-07T14:24:28.377Z,98497.47
2023-03-07T14:27:04.064Z,98501.81
2023-03-07T14:29:31.479Z,98494.22
2023-03-07T14:32:01.224Z,98489.66
2023-03-07T14:34:34.960Z,98496.34
2023-03-07T14:37:05.810Z,98508.28
2023-03-07T14:39:44.604Z,98513.94
2023-03-07T14:42:34.065Z,98514.50
2023-03-07T14:45:24.122Z,98513.88
2023-03-07T14:48:14.690Z,98538.47
2023-03-07T14:50:44.497Z,98541.09
2023-03-07T14:53:21.838Z,98548.22
2023-03-07T14:55:53.699Z,98562.75
2023-03-07T14:58:28.581Z,98575.03
2023-03-07T15:01:12.341Z,98569.56
2023-03-07T15:03:47.690Z,98567.31
2023-03-07T15:06:22.403Z,98566.97
2023-03-07T15:08:51.987Z,98583.31
2023-03-07T15:11:41.045Z,98583.44
2023-03-07T15:14:29.492Z,98587.31
2023-03-07T15:17:04.803Z,98575.84
2023-03-07T15:20:06.471Z,98572.88
2023-03-07T15:22:39.534Z,98563.66
2023-03-07T15:25:26.942Z,98573.25
2023-03-07T15:28:16.850Z,98560.19
2023-03-07T15:30:53.370Z,98569.53
2023-03-07T15:33:20.514Z,98579.22
2023-03-07T15:36:05.892Z,98573.22
2023-03-07T15:38:33.787Z,98569.19
2023-03-07T15:41:03.202Z,98565.28
2023-03-07T15:43:35.503Z,98565.97
2023-03-07T15:46:13.333Z,98566.03
2023-03-07T15:48:44.289Z,98558.38
2023-03-07T15:51:23.949Z,98553.25
2023-03-07T15:54:03.329Z,98547.53
2023-03-07T15:56:37.630Z,98544.41
2023-03-07T15:59:17.785Z,98539.13
2023-03-07T16:01:44.934Z,98528.44
2023-03-07T16:04:34.894Z,98532.66
2023-03-07T16:07:02.580Z,98516.16
2023-03-07T16:09:29.528Z,98533.63
2023-03-07T16:11:56.675Z,98530.03
2023-03-07T16:14:31.409Z,98534.84
2023-03-07T16:17:14.273Z,98537.63
2023-03-07T16:19:41.157Z,98535.84
2023-03-07T16:22:16.710Z,98533.44
2023-03-07T16:24:45.965Z,98536.88
2023-03-07T16:27:20.368Z,98537.19
2023-03-07T16:29:48.124Z,98526.53
2023-03-07T16:32:22.294Z,98518.94
2023-03-07T16:34:49.900Z,98541.25
2023-03-07T16:37:19.163Z,98534.81
2023-03-07T16:39:46.065Z,98526.88
2023-03-07T16:42:23.497Z,98537.06
2023-03-07T16:44:51.868Z,98534.81
2023-03-07T16:47:18.971Z,98536.88
2023-03-07T16:49:46.851Z,98539.97
2023-03-07T16:52:14.749Z,98535.94
2023-03-07T16:54:41.793Z,98528.66
2023-03-07T16:57:17.430Z,98524.59
2023-03-07T16:59:47.070Z,98536.94
2023-03-07T17:02:19.611Z,98536.44
2023-03-07T17:04:47.308Z,98539.38
2023-03-07T17:07:21.929Z,98531.13
2023-03-07T17:09:51.288Z,98541.47
2023-03-07T17:12:22.841Z,98544.56
2023-03-07T17:14:49.909Z,98549.88
2023-03-07T17:17:29.178Z,98550.81
2023-03-07T17:20:01.074Z,98554.88
2023-03-07T17:22:28.244Z,98562.31
2023-03-07T17:24:55.223Z,98576.22
2023-03-07T17:27:22.165Z,98579.44
2023-03-07T17:29:53.004Z,98569.91
2023-03-07T17:32:20.226Z,98572.00
2023-03-07T17:34:47.552Z,98581.03
2023-03-07T17:37:14.449Z,98576.50
2023-03-07T17:39:42.345Z,98567.63
2023-03-07T17:42:09.593Z,98566.84
2023-03-07T17:44:36.579Z,98570.38
2023-03-07T17:47:03.781Z,98573.94
2023-03-07T17:49:38.848Z,98583.63
2023-03-07T17:52:07.249Z,98591.22
2023-03-07T17:54:34.648Z,98591.06
2023-03-07T17:57:03.386Z,98595.59
2023-03-07T17:59:32.682Z,98604.94
2023-03-07T18:01:59.784Z,98616.75
2023-03-07T18:04:29.230Z,98611.25
2023-03-07T18:06:56.175Z,98604.78
2023-03-07T18:09:25.330Z,98609.00
2023-03-07T18:11:54.786Z,98608.50
2023-03-07T18:14:22.039Z,98608.38
2023-03-07T18:16:49.429Z,98615.44
2023-03-07T18:19:25.557Z,98615.78
2023-03-07T18:21:53.176Z,98610.78
2023-03-07T18:24:26.166Z,98623.84
2023-03-07T18:26:54.823Z,98622.22
2023-03-07T18:29:23.252Z,98632.41
2023-03-07T18:31:50.603Z,98637.41
2023-03-07T18:34:17.545Z,98639.03
2023-03-07T18:36:44.565Z,98646.31
2023-03-07T18:39:11.685Z,98652.91
2023-03-07T18:41:38.972Z,98650.00
2023-03-07T18:44:06.013Z,98653.25
2023-03-07T18:46:33.034Z,98649.06
2023-03-07T18:49:00.958Z,98650.16
2023-03-07T18:51:28.459Z,98657.41
2023-03-07T18:53:58.821Z,98660.31
2023-03-07T18:56:26.587Z,98664.38
2023-03-07T18:58:55.928Z,98666.31
2023-03-07T19:01:29.870Z,98670.19
2023-03-07T19:04:01.365Z,98676.50
2023-03-07T19:06:39.657Z,98689.88
2023-03-07T19:09:09.759Z,98684.88
2023-03-07T19:11:36.928Z,98694.09
2023-03-07T19:14:05.034Z,98686.00
2023-03-07T19:16:35.046Z,98682.97
2023-03-07T19:19:05.175Z,98678.44
2023-03-07T19:21:32.443Z,98682.00
2023-03-07T19:24:01.984Z,98682.00
2023-03-07T19:26:29.152Z,98686.47
2023-03-07T19:28:59.796Z,98693.94
2023-03-07T19:31:33.477Z,98699.91
2023-03-07T19:34:14.370Z,98697.50
2023-03-07T19:36:41.994Z,98703.16
2023-03-07T19:44:39.488Z,98693.25
2023-03-07T19:47:06.651Z,98693.75
2023-03-07T19:49:35.228Z,98701.34
2023-03-07T19:52:02.729Z,98697.78
2023-03-07T19:54:30.779Z,98688.88
2023-03-07T19:57:02.907Z,98701.94
2023-03-07T19:59:36.561Z,98690.34
2023-03-07T20:02:06.310Z,98693.59
2023-03-07T20:04:34.171Z,98693.91
2023-03-07T20:07:07.331Z,98689.84
2023-03-07T20:09:52.575Z,98697.59
2023-03-07T20:15:09.581Z,98702.09
2023-03-07T20:20:19.719Z,98679.50
2023-03-07T20:22:46.883Z,98692.41
2023-03-07T20:25:14.557Z,98682.09
2023-03-07T20:27:42.087Z,98696.50
2023-03-07T20:30:10.022Z,98681.00
2023-03-07T20:32:37.289Z,98679.34
2023-03-07T20:35:04.889Z,98687.41
2023-03-07T20:37:34.446Z,98701.94
2023-03-07T20:40:03.104Z,98698.06
2023-03-07T20:42:31.850Z,98703.41
2023-03-07T20:45:25.496Z,98700.59
2023-03-07T20:47:52.610Z,98707.56
2023-03-07T20:50:19.784Z,98710.94
2023-03-07T20:52:49.113Z,98710.59
2023-03-07T20:55:16.438Z,98709.47
2023-03-07T20:57:43.897Z,98719.78
2023-03-07T21:00:12.266Z,98732.56
2023-03-07T21:02:39.744Z,98736.75
2023-03-07T21:05:09.632Z,98734.47
2023-03-07T21:07:36.524Z,98744.81
2023-03-07T21:10:03.563Z,98741.22
2023-03-07T21:12:31.926Z,98751.84
2023-03-07T21:14:58.911Z,98741.41
2023-03-07T21:20:01.235Z,98730.41
2023-03-07T21:22:28.200Z,98733.84
2023-03-07T21:24:55.104Z,98732.56
2023-03-07T21:27:22.010Z,98726.75
2023-03-07T21:29:48.971Z,98733.84
2023-03-07T21:32:16.028Z,98730.47
2023-03-07T21:34:42.919Z,98731.75
2023-03-07T21:37:09.819Z,98737.72
2023-03-07T21:39:36.831Z,98749.56
2023-03-07T21:42:03.818Z,98743.53
2023-03-07T21:44:30.992Z,98758.06
2023-03-07T21:46:57.906Z,98755.47
2023-03-07T21:49:24.851Z,98757.44
2023-03-07T21:51:51.762Z,98768.06
2023-03-07T21:54:18.803Z,98769.25
2023-03-07T21:56:45.830Z,98779.69
2023-03-07T21:59:12.901Z,98761.50
2023-03-07T22:01:39.805Z,98777.13
2023-03-07T22:04:06.739Z,98767.63
2023-03-07T22:06:33.701Z,98759.41
2023-03-07T22:09:01.642Z,98761.34
2023-03-07T22:11:28.611Z,98763.41
2023-03-07T22:13:55.947Z,98761.59
2023-03-07T22:16:23.131Z,98755.53
2023-03-07T22:18:55.655Z,98748.25
2023-03-07T22:21:25.992Z,98750.16
2023-03-07T22:24:00.465Z,98756.34
2023-03-07T22:26:29.896Z,98754.03
2023-03-07T22:28:57.744Z,98759.88
2023-03-07T22:31:25.974Z,98758.72
2023-03-07T22:33:53.049Z,98764.53
2023-03-07T22:36:20.118Z,98764.19
2023-03-07T22:38:47.176Z,98763.22
2023-03-07T22:41:16.657Z,98764.66
2023-03-07T22:43:44.084Z,98777.25
2023-03-07T22:46:11.607Z,98781.91
2023-03-07T22:48:39.658Z,98786.53
2023-03-07T22:51:14.176Z,98790.72
2023-03-07T22:53:41.250Z,98797.94
2023-03-07T22:56:17.818Z,98797.78
2023-03-07T22:58:45.101Z,98806.66
2023-03-07T23:01:22.225Z,98798.72
2023-03-07T23:03:51.950Z,98800.97
2023-03-07T23:06:20.990Z,98799.38
2023-03-07T23:08:51.526Z,98791.47
2023-03-07T23:11:20.968Z,98797.91
2023-03-07T23:13:48.215Z,98796.78
2023-03-07T23:16:18.544Z,98798.22
2023-03-07T23:18:46.276Z,98800.50
2023-03-07T23:21:16.182Z,98784.84
2023-03-07T23:23:43.111Z,98793.28
2023-03-07T23:26:20.177Z,98790.47
2023-03-07T23:28:47.241Z,98789.03
2023-03-07T23:31:33.145Z,98776.78
2023-03-07T23:34:07.163Z,98780.81
2023-03-07T23:36:34.390Z,98789.19
2023-03-07T23:39:01.520Z,98781.75
2023-03-07T23:41:28.409Z,98782.44
2023-03-07T23:43:59.120Z,98776.19
2023-03-07T23:46:27.445Z,98772.28
2023-03-07T23:48:54.687Z,98776.59
2023-03-07T23:51:24.831Z,98787.84
2023-03-07T23:53:51.817Z,98794.13
2023-03-07T23:56:18.683Z,98794.84
2023-03-07T23:58:50.708Z,98785.75
